Time;durP1;ratioP1;P1;durP2;ratioP2;P2;SDS_P1;SDS_P2;PMS_P1;PMS_P2;Temp;Humidity;BMP_temperature;BMP_pressure;BME280_temperature;BME280_humidity;BME280_pressure;Samples;Min_cycle;Max_cycle;Signal;HPM_P1;HPM_P2
2023/03/12 00:01:26;;;;;;;1999.90;999.90;;;;;;;-1.88;100.00;100230.69;5001395;28;20034;-72
2023/03/12 00:03:52;;;;;;;1999.90;999.90;;;;;;;-1.86;100.00;100229.03;5001310;28;20034;-72
2023/03/12 00:06:19;;;;;;;1999.90;999.90;;;;;;;-1.81;100.00;100237.88;5001744;28;20129;-71
2023/03/12 00:08:45;;;;;;;1999.90;999.90;;;;;;;-1.80;100.00;100233.56;5000548;28;20567;-72
2023/03/12 00:11:13;;;;;;;1999.90;999.90;;;;;;;-1.72;100.00;100233.88;4998009;28;20316;-72
2023/03/12 00:13:39;;;;;;;1999.90;999.90;;;;;;;-1.73;100.00;100235.53;5002700;28;20044;-72
2023/03/12 00:16:13;;;;;;;1999.90;999.90;;;;;;;-1.73;100.00;100239.84;4999957;28;20121;-71
2023/03/12 00:18:39;;;;;;;1999.90;999.90;;;;;;;-1.77;100.00;100244.03;4996861;28;20480;-71
2023/03/12 00:21:06;;;;;;;1999.90;999.90;;;;;;;-1.76;100.00;100240.59;5002215;28;20172;-71
2023/03/12 00:23:31;;;;;;;1999.90;999.90;;;;;;;-1.75;100.00;100238.94;5003063;28;20475;-71
2023/03/12 00:26:04;;;;;;;1999.90;999.90;;;;;;;-1.71;100.00;100236.50;5006036;28;20125;-71
2023/03/12 00:28:30;;;;;;;1999.90;999.90;;;;;;;-1.73;100.00;100240.72;5005537;28;20446;-71
2023/03/12 00:30:57;;;;;;;1999.90;999.90;;;;;;;-1.74;100.00;100243.28;5001521;28;20117;-72
2023/03/12 00:33:26;;;;;;;1999.90;999.90;;;;;;;-1.76;100.00;100245.78;5004241;28;20022;-72
2023/03/12 00:35:51;;;;;;;1999.90;999.90;;;;;;;-1.78;100.00;100243.16;5001138;28;20072;-71
2023/03/12 00:38:17;;;;;;;1999.90;999.90;;;;;;;-1.77;100.00;100244.91;5002550;28;20117;-71
2023/03/12 00:40:42;;;;;;;1999.90;999.90;;;;;;;-1.81;100.00;100247.31;5004449;28;20036;-72
2023/03/12 00:43:08;;;;;;;1999.90;999.90;;;;;;;-1.81;100.00;100243.03;5005014;28;20033;-72
2023/03/12 00:45:33;;;;;;;1999.90;999.90;;;;;;;-1.81;100.00;100232.69;5003688;28;20042;-72
2023/03/12 00:47:59;;;;;;;1999.90;999.90;;;;;;;-1.83;100.00;100234.34;5003330;28;20121;-72
2023/03/12 00:50:24;;;;;;;1999.90;999.90;;;;;;;-1.85;100.00;100238.56;5001358;28;20030;-72
2023/03/12 00:52:50;;;;;;;1999.90;999.90;;;;;;;-1.86;100.00;100236.81;5005122;28;20095;-71
2023/03/12 00:55:15;;;;;;;1999.90;999.90;;;;;;;-1.85;100.00;100238.56;5001293;28;20034;-71
2023/03/12 00:57:41;;;;;;;1999.90;999.90;;;;;;;-1.84;100.00;100240.31;5005014;28;20053;-72
2023/03/12 01:00:09;;;;;;;1999.90;999.90;;;;;;;-1.81;100.00;100250.81;5002206;28;20030;-72
2023/03/12 01:02:35;;;;;;;1999.90;999.90;;;;;;;-1.79;100.00;100238.78;5001806;28;20034;-72
2023/03/12 01:05:01;;;;;;;1999.90;999.90;;;;;;;-1.83;100.00;100236.91;5004168;28;20148;-72
2023/03/12 01:07:26;;;;;;;1999.90;999.90;;;;;;;-1.84;100.00;100242.91;5003281;28;20120;-71
2023/03/12 01:09:51;;;;;;;1999.90;999.90;;;;;;;-1.84;100.00;100244.59;5005040;28;20068;-72
2023/03/12 01:12:17;;;;;;;1999.90;999.90;;;;;;;-1.85;100.00;100246.31;5001261;28;20038;-72
2023/03/12 01:14:42;;;;;;;1999.90;999.90;;;;;;;-1.86;100.00;100238.47;5002906;28;20037;-72
2023/03/12 01:17:07;;;;;;;1999.90;999.90;;;;;;;-1.88;100.00;100241.03;5002024;28;20481;-71
2023/03/12 01:19:33;;;;;;;1999.90;999.90;;;;;;;-1.88;100.00;100243.63;5004559;28;20414;-71
2023/03/12 01:21:58;;;;;;;1999.90;999.90;;;;;;;-1.84;100.00;100242.91;5003541;28;20393;-71
2023/03/12 01:24:23;;;;;;;49.57;47.33;;;;;;;-1.83;100.00;100242.09;5004594;28;20684;-72
2023/03/12 01:26:49;;;;;;;49.70;47.47;;;;;;;-1.77;100.00;100247.50;5003456;28;20038;-72
2023/03/12 01:29:14;;;;;;;52.73;50.37;;;;;;;-1.78;100.00;100245.75;5000061;28;20050;-72
2023/03/12 01:31:39;;;;;;;1999.90;999.90;;;;;;;-1.81;100.00;100243.03;5001667;28;20042;-72
2023/03/12 01:34:05;;;;;;;1999.90;999.90;;;;;;;-1.79;100.00;100250.84;5002904;28;20069;-71
2023/03/12 01:36:30;;;;;;;1999.90;999.90;;;;;;;-1.82;100.00;100250.72;4986034;28;20038;-71
2023/03/12 01:38:58;;;;;;;1999.90;999.90;;;;;;;-1.83;100.00;100252.44;5002332;28;20034;-71
2023/03/12 01:41:26;;;;;;;1999.90;999.90;;;;;;;-1.86;100.00;100254.91;5002761;28;20030;-72
2023/03/12 01:43:52;;;;;;;1999.90;999.90;;;;;;;-1.87;100.00;100245.38;5002814;28;20129;-72
2023/03/12 01:46:21;;;;;;;1999.90;999.90;;;;;;;-1.86;100.00;100248.84;5003134;28;20041;-72
2023/03/12 01:49:13;;;;;;;1999.90;999.90;;;;;;;-1.85;100.00;100256.66;5000572;28;20413;-72
2023/03/12 01:51:43;;;;;;;44.40;42.40;;;;;;;-1.89;100.00;100247.00;5003638;28;20073;-71
2023/03/12 01:54:16;;;;;;;34.03;32.47;;;;;;;-1.89;100.00;100241.84;5000424;28;20121;-72
2023/03/12 01:56:42;;;;;;;36.37;34.70;;;;;;;-1.87;100.00;100244.50;4995891;28;20512;-72
2023/03/12 01:59:31;;;;;;;35.03;33.43;;;;;;;-1.80;100.00;100243.91;4998677;28;20034;-72
2023/03/12 02:01:57;;;;;;;33.17;31.67;;;;;;;-1.85;100.00;100250.63;4997310;28;20034;-72
2023/03/12 02:04:26;;;;;;;49.10;46.87;;;;;;;-1.85;100.00;100243.72;5003227;28;20042;-72
2023/03/12 02:07:02;;;;;;;40.60;38.77;;;;;;;-1.81;100.00;100237.88;5001110;28;20031;-72
2023/03/12 02:09:33;;;;;;;40.03;38.23;;;;;;;-1.83;100.00;100241.22;5002157;28;20034;-72
2023/03/12 02:11:58;;;;;;;42.00;40.10;;;;;;;-1.89;100.00;100243.53;5001399;28;20058;-72
2023/03/12 02:14:24;;;;;;;45.43;43.37;;;;;;;-1.91;100.00;100246.09;5001200;28;20120;-73
2023/03/12 02:16:50;;;;;;;49.03;46.80;;;;;;;-1.93;100.00;100242.56;5002259;28;20061;-72
2023/03/12 02:19:32;;;;;;;60.27;57.57;;;;;;;-1.92;100.00;100244.31;5003258;28;20034;-72
2023/03/12 02:21:58;;;;;;;68.57;65.57;;;;;;;-1.98;100.00;100252.72;5002041;28;20065;-72
2023/03/12 02:24:32;;;;;;;55.73;53.23;;;;;;;-1.99;100.00;100252.66;5001084;28;20034;-72
2023/03/12 02:26:58;;;;;;;55.30;52.80;;;;;;;-2.02;100.00;100257.69;4999183;28;20401;-72
2023/03/12 02:29:27;;;;;;;48.03;45.87;;;;;;;-2.03;100.00;100261.13;5001658;28;20031;-72
2023/03/12 02:31:55;;;;;;;44.13;42.17;;;;;;;-2.05;100.00;100262.75;4994216;28;20534;-72
2023/03/12 02:34:21;;;;;;;45.37;43.33;;;;;;;-2.06;100.00;100272.22;5002551;28;20084;-72
2023/03/12 02:36:47;;;;;;;39.93;38.10;;;;;;;-2.06;100.00;100267.03;5000472;28;20113;-72
2023/03/12 02:39:12;;;;;;;59.03;56.33;;;;;;;-2.09;100.00;100264.34;5003118;28;20032;-73
2023/03/12 02:41:45;;;;;;;37.60;35.90;;;;;;;-2.10;100.00;100270.31;5002031;28;20034;-72
2023/03/12 02:44:15;;;;;;;47.70;45.53;;;;;;;-2.12;100.00;100273.66;5001077;28;20510;-72
2023/03/12 02:46:44;;;;;;;37.47;35.77;;;;;;;-2.13;100.00;100277.06;4998767;28;20418;-72
2023/03/12 02:49:12;;;;;;;37.00;35.33;;;;;;;-2.13;100.00;100277.06;5002386;28;20030;-72
2023/03/12 02:51:38;;;;;;;35.93;34.30;;;;;;;-2.12;100.00;100281.41;4995527;28;20037;-72
2023/03/12 02:54:05;;;;;;;43.37;41.33;;;;;;;-2.15;100.00;100278.72;5002630;28;20029;-72
2023/03/12 02:56:31;;;;;;;41.83;39.93;;;;;;;-2.17;100.00;100277.75;5001259;28;20370;-72
2023/03/12 02:58:57;;;;;;;41.57;39.70;;;;;;;-2.21;100.00;100282.81;5000719;28;20036;-72
2023/03/12 03:01:23;;;;;;;34.17;32.60;;;;;;;-2.26;100.00;100281.72;5000018;28;20109;-72
2023/03/12 03:03:49;;;;;;;25.17;23.97;;;;;;;-2.26;100.00;100280.84;5003479;28;20117;-72
2023/03/12 03:06:15;;;;;;;20.93;19.93;;;;;;;-2.25;100.00;100280.94;5001501;28;20030;-73
2023/03/12 03:08:40;;;;;;;28.10;26.80;;;;;;;-2.29;100.00;100284.19;5001439;28;20579;-72
2023/03/12 03:11:06;;;;;;;25.33;24.13;;;;;;;-2.28;100.00;100283.41;5000151;28;20551;-72
2023/03/12 03:13:32;;;;;;;29.60;28.20;;;;;;;-2.27;100.00;100290.31;4984835;28;20038;-72
2023/03/12 03:16:00;;;;;;;25.23;24.07;;;;;;;-2.29;100.00;100289.38;5001036;28;20385;-71
2023/03/12 03:18:27;;;;;;;31.30;29.83;;;;;;;-2.30;100.00;100287.63;5000439;28;20116;-72
2023/03/12 03:20:58;;;;;;;30.67;29.27;;;;;;;-2.32;100.00;100291.84;5000963;28;20035;-72
2023/03/12 03:23:24;;;;;;;31.80;30.33;;;;;;;-2.32;100.00;100299.59;4999419;28;20441;-71
2023/03/12 03:25:51;;;;;;;24.13;23.03;;;;;;;-2.34;100.00;100302.94;5001209;28;20038;-72
2023/03/12 03:28:19;;;;;;;28.43;27.13;;;;;;;-2.36;100.00;100301.97;5003475;28;20428;-72
2023/03/12 03:30:44;;;;;;;23.53;22.43;;;;;;;-2.41;100.00;100299.22;4996400;28;20037;-71
2023/03/12 03:33:10;;;;;;;27.53;26.23;;;;;;;-2.47;100.00;100312.72;4998945;28;20027;-72
2023/03/12 03:35:36;;;;;;;26.70;25.47;;;;;;;-2.51;100.00;100304.81;5003060;28;20516;-72
2023/03/12 03:38:02;;;;;;;28.50;27.20;;;;;;;-2.50;100.00;100306.56;5001855;28;20116;-72
2023/03/12 03:40:27;;;;;;;27.93;26.63;;;;;;;-2.54;100.00;100310.72;4998911;28;20456;-72
2023/03/12 03:42:52;;;;;;;31.20;29.77;;;;;;;-2.55;100.00;100313.25;5001427;28;20606;-72
2023/03/12 03:45:18;;;;;;;25.00;23.80;;;;;;;-2.57;100.00;100314.88;4995748;28;20484;-72
2023/03/12 03:47:44;;;;;;;24.37;23.27;;;;;;;-2.59;100.00;100319.06;5000962;28;20034;-72
2023/03/12 03:50:11;;;;;;;20.93;19.93;;;;;;;-2.61;100.00;100321.63;4993884;28;20038;-72
2023/03/12 03:52:36;;;;;;;20.13;19.13;;;;;;;-2.63;100.00;100324.94;5001004;28;20121;-72
2023/03/12 03:55:02;;;;;;;22.07;21.07;;;;;;;-2.63;100.00;100330.13;4999771;28;20031;-72
2023/03/12 03:57:30;;;;;;;19.60;18.70;;;;;;;-2.67;100.00;100327.41;5001547;28;20060;-72
2023/03/12 03:59:57;;;;;;;25.10;23.93;;;;;;;-2.73;100.00;100327.13;5002005;28;20035;-73
2023/03/12 04:02:24;;;;;;;27.47;26.17;;;;;;;-2.75;100.00;100327.84;5004664;28;20405;-72
2023/03/12 04:04:50;;;;;;;20.90;19.90;;;;;;;-2.75;100.00;100328.78;5004735;28;20107;-72
2023/03/12 04:07:16;;;;;;;21.20;20.20;;;;;;;-2.70;100.00;100328.94;5006313;28;20053;-72
2023/03/12 04:09:41;;;;;;;20.63;19.63;;;;;;;-2.69;100.00;100323.88;5000003;28;20129;-72
2023/03/12 04:12:07;;;;;;;17.07;16.27;;;;;;;-2.66;100.00;100328.28;5013538;28;20034;-72
2023/03/12 04:14:39;;;;;;;18.33;17.43;;;;;;;-2.64;100.00;100329.25;5002563;28;20117;-72
2023/03/12 04:17:04;;;;;;;18.80;17.90;;;;;;;-2.61;100.00;100341.41;5011670;28;20042;-72
2023/03/12 04:19:30;;;;;;;18.83;17.93;;;;;;;-2.60;100.00;100338.00;5008133;28;20031;-72
2023/03/12 04:21:55;;;;;;;16.80;16.00;;;;;;;-2.63;100.00;100330.13;5005706;28;20412;-72
2023/03/12 04:24:21;;;;;;;14.20;13.50;;;;;;;-2.66;100.00;100339.50;5002152;28;20038;-72
2023/03/12 04:26:47;;;;;;;43.80;41.57;;;;;;;-2.71;100.00;100340.13;5002393;28;20026;-71
2023/03/12 04:29:14;;;;;;;1999.90;999.90;;;;;;;-2.75;100.00;100338.19;5001281;28;20395;-72
2023/03/12 04:31:40;;;;;;;1999.90;999.90;;;;;;;-2.80;100.00;100343.19;5002761;28;20121;-72
2023/03/12 04:34:05;;;;;;;1999.90;999.90;;;;;;;-2.83;100.00;100340.44;5004725;28;20447;-71
2023/03/12 04:36:31;;;;;;;1999.90;999.90;;;;;;;-2.86;100.00;100340.31;5002849;28;20042;-72
2023/03/12 04:38:57;;;;;;;1999.90;999.90;;;;;;;-2.87;100.00;100339.44;5000721;28;20042;-72
2023/03/12 04:41:27;;;;;;;1999.90;999.90;;;;;;;-2.90;100.00;100343.59;5003539;28;20030;-71
2023/03/12 04:43:59;;;;;;;1999.90;999.90;;;;;;;-2.92;100.00;100348.66;5004334;28;20069;-71
2023/03/12 04:46:25;;;;;;;1999.90;999.90;;;;;;;-2.93;100.00;100352.06;5005813;28;20122;-72
2023/03/12 04:48:50;;;;;;;1999.90;999.90;;;;;;;-2.96;100.00;100349.38;5001899;28;20042;-72
2023/03/12 04:51:16;;;;;;;1999.90;999.90;;;;;;;-2.92;100.00;100352.97;5004803;28;20036;-72
2023/03/12 04:53:42;;;;;;;1999.90;999.90;;;;;;;-2.89;100.00;100346.22;5001825;28;20074;-72
2023/03/12 04:56:09;;;;;;;1999.90;999.90;;;;;;;-2.86;100.00;100360.97;5006379;28;20030;-72
2023/03/12 04:58:35;;;;;;;1999.90;999.90;;;;;;;-2.85;100.00;100349.84;5001305;28;20029;-73
2023/03/12 05:01:00;;;;;;;1999.90;999.90;;;;;;;-2.85;100.00;100351.53;4999919;28;20100;-72
2023/03/12 05:03:26;;;;;;;1999.90;999.90;;;;;;;-2.88;100.00;100352.28;5001260;28;20069;-72
2023/03/12 05:05:52;;;;;;;1999.90;999.90;;;;;;;-2.91;100.00;100362.47;5004762;28;20034;-72
2023/03/12 05:08:18;;;;;;;1999.90;999.90;;;;;;;-2.96;100.00;100353.63;5002540;28;20042;-72
2023/03/12 05:10:44;;;;;;;1999.90;999.90;;;;;;;-2.98;100.00;100355.28;5004202;28;20221;-72
2023/03/12 05:13:21;;;;;;;1999.90;999.90;;;;;;;-2.97;100.00;100362.19;5002159;28;20097;-72
2023/03/12 05:15:49;;;;;;;1999.90;999.90;;;;;;;-2.99;100.00;100359.53;5002109;28;20137;-72
2023/03/12 05:18:16;;;;;;;1999.90;999.90;;;;;;;-3.02;100.00;100351.66;5001840;28;20038;-72
2023/03/12 05:20:42;;;;;;;1999.90;999.90;;;;;;;-3.08;100.00;100357.41;5003742;28;20084;-72
2023/03/12 05:23:08;;;;;;;1999.90;999.90;;;;;;;-3.12;100.00;100358.13;5001403;28;20049;-72
2023/03/12 05:25:37;;;;;;;1999.90;999.90;;;;;;;-3.11;100.00;100359.88;5005497;28;20041;-72
2023/03/12 05:28:03;;;;;;;1999.90;999.90;;;;;;;-3.09;100.00;100357.38;4981319;28;20042;-72
2023/03/12 05:30:28;;;;;;;1999.90;999.90;;;;;;;-3.05;100.00;100364.41;4999549;28;20030;-72
2023/03/12 05:32:53;;;;;;;1999.90;999.90;;;;;;;-3.02;100.00;100368.84;5001993;28;20113;-72
2023/03/12 05:35:19;;;;;;;1999.90;999.90;;;;;;;-3.01;100.00;100361.19;5004325;28;20085;-72
2023/03/12 05:37:45;;;;;;;1999.90;999.90;;;;;;;-2.96;100.00;100370.03;5003969;28;20036;-72
2023/03/12 05:40:11;;;;;;;1999.90;999.90;;;;;;;-2.90;100.00;100364.25;5000824;28;20038;-72
2023/03/12 05:42:37;;;;;;;1999.90;999.90;;;;;;;-2.88;100.00;100365.22;5001961;28;20198;-72
2023/03/12 05:45:04;;;;;;;1999.90;999.90;;;;;;;-2.90;100.00;100366.81;5003356;28;20137;-72
2023/03/12 05:47:29;;;;;;;1999.90;999.90;;;;;;;-2.93;100.00;100361.53;5001289;28;20497;-72
2023/03/12 05:49:55;;;;;;;1999.90;999.90;;;;;;;-2.91;100.00;100365.03;5003854;28;20040;-72
2023/03/12 05:52:20;;;;;;;1999.90;999.90;;;;;;;-2.83;100.00;100366.25;5003033;28;20126;-72
2023/03/12 05:54:46;;;;;;;1999.90;999.90;;;;;;;-2.75;100.00;100364.03;5002745;28;20438;-72
2023/03/12 05:57:11;;;;;;;1999.90;999.90;;;;;;;-2.68;100.00;100368.66;5001059;28;20399;-72
2023/03/12 05:59:37;;;;;;;1999.90;999.90;;;;;;;-2.62;100.00;100366.38;4999671;28;20058;-74
2023/03/12 06:02:04;;;;;;;1999.90;999.90;;;;;;;-2.57;100.00;100372.59;5002319;28;20053;-72
2023/03/12 06:04:29;;;;;;;1999.90;999.90;;;;;;;-2.54;100.00;100371.84;5001939;28;20381;-72
2023/03/12 06:06:55;;;;;;;1999.90;999.90;;;;;;;-2.53;100.00;100371.91;5002063;28;20557;-73
2023/03/12 06:09:20;;;;;;;1999.90;999.90;;;;;;;-2.50;100.00;100373.75;5000668;28;20033;-72
2023/03/12 06:11:46;;;;;;;1999.90;999.90;;;;;;;-2.45;100.00;100370.53;5002228;28;20501;-72
2023/03/12 06:14:12;;;;;;;1999.90;999.90;;;;;;;-2.36;100.00;100369.16;5001496;28;20036;-72
2023/03/12 06:16:37;;;;;;;1999.90;999.90;;;;;;;-2.28;100.00;100362.63;5002263;28;20037;-72
2023/03/12 06:19:03;;;;;;;1999.90;999.90;;;;;;;-2.24;100.00;100368.00;5002030;28;20135;-72
2023/03/12 06:21:33;;;;;;;1999.90;999.90;;;;;;;-2.13;100.00;100363.28;5002108;28;20447;-72
2023/03/12 06:24:00;;;;;;;1999.90;999.90;;;;;;;-2.04;100.00;100355.91;5001620;28;20034;-73
2023/03/12 06:26:35;;;;;;;1999.90;999.90;;;;;;;-1.91;100.00;100359.91;4997905;28;20026;-72
2023/03/12 06:29:01;;;;;;;1999.90;999.90;;;;;;;-1.76;100.00;100362.22;5002187;28;20053;-72
2023/03/12 06:31:26;;;;;;;1999.90;999.90;;;;;;;-1.61;100.00;100369.72;5001933;28;20481;-72
2023/03/12 06:33:52;;;;;;;1999.90;999.90;;;;;;;-1.46;100.00;100366.88;5003390;28;20034;-72
2023/03/12 06:36:21;;;;;;;1999.90;999.90;;;;;;;-1.31;100.00;100372.66;5002222;28;20037;-72
2023/03/12 06:38:47;;;;;;;1999.90;999.90;;;;;;;-1.21;100.00;100372.16;5002359;28;20485;-73
2023/03/12 06:41:15;;;;;;;1999.90;999.90;;;;;;;-1.06;100.00;100371.88;4998564;28;20030;-73
2023/03/12 06:43:42;;;;;;;1999.90;999.90;;;;;;;-0.95;100.00;100373.16;5001900;28;20034;-72
2023/03/12 06:46:14;;;;;;;1999.90;999.90;;;;;;;-0.83;100.00;100371.84;5003369;28;20049;-73
2023/03/12 06:48:40;;;;;;;1999.90;999.90;;;;;;;-0.78;100.00;100367.72;5000461;28;20041;-72
2023/03/12 06:51:09;;;;;;;1999.90;999.90;;;;;;;-0.67;100.00;100369.00;4996499;28;20085;-73
2023/03/12 06:53:35;;;;;;;1999.90;999.90;;;;;;;-0.62;100.00;100367.44;4999252;28;20081;-73
2023/03/12 06:56:01;;;;;;;1999.90;999.90;;;;;;;-0.51;100.00;100373.91;5001284;28;20038;-72
2023/03/12 06:58:27;;;;;;;1999.90;999.90;;;;;;;-0.46;100.00;100371.47;5003203;28;20034;-73
2023/03/12 07:00:52;;;;;;;1999.90;999.90;;;;;;;-0.38;100.00;100363.97;4999936;28;20427;-72
2023/03/12 07:03:18;;;;;;;1999.90;999.90;;;;;;;-0.31;100.00;100368.56;5001416;28;20069;-73
2023/03/12 07:05:45;;;;;;;1999.90;999.90;;;;;;;-0.20;100.00;100369.78;5002849;28;20496;-72
2023/03/12 07:08:11;;;;;;;1999.90;999.90;;;;;;;-0.11;99.43;100370.09;5001789;28;20125;-72
2023/03/12 07:10:36;;;;;;;1999.90;999.90;;;;;;;0.01;100.00;100369.66;5003252;28;20121;-73
2023/03/12 07:13:02;;;;;;;1999.90;999.90;;;;;;;0.10;99.88;100364.75;5003336;28;20056;-73
2023/03/12 07:15:27;;;;;;;1999.90;999.90;;;;;;;0.23;99.44;100366.03;5002033;28;20045;-73
2023/03/12 07:17:53;;;;;;;1999.90;999.90;;;;;;;0.36;99.20;100370.78;5002176;28;20116;-72
2023/03/12 07:20:18;;;;;;;1999.90;999.90;;;;;;;0.44;96.59;100369.31;5001612;28;20072;-73
2023/03/12 07:22:44;;;;;;;1999.90;999.90;;;;;;;0.56;96.48;100375.75;5002160;28;20053;-73
2023/03/12 07:25:10;;;;;;;1999.90;999.90;;;;;;;0.66;94.67;100372.63;5003091;28;20074;-72
2023/03/12 07:27:35;;;;;;;1999.90;999.90;;;;;;;0.83;95.26;100367.94;5001324;28;20038;-73
2023/03/12 07:30:00;;;;;;;1999.90;999.90;;;;;;;0.97;94.08;100378.72;4998232;28;20492;-73
2023/03/12 07:32:26;;;;;;;1999.90;999.90;;;;;;;1.07;94.00;100375.56;5001561;28;20568;-73
2023/03/12 07:34:51;;;;;;;1999.90;999.90;;;;;;;1.20;93.04;100376.81;5001118;28;20049;-73
2023/03/12 07:37:17;;;;;;;1999.90;999.90;;;;;;;1.30;91.70;100377.13;5002409;28;20087;-72
2023/03/12 07:39:43;;;;;;;1999.90;999.90;;;;;;;1.45;92.78;100378.41;5000647;28;20042;-73
2023/03/12 07:42:08;;;;;;;1999.90;999.90;;;;;;;1.50;91.01;100372.50;5002779;28;20049;-73
2023/03/12 07:44:35;;;;;;;1999.90;999.90;;;;;;;1.56;89.69;100376.09;4998980;28;20061;-73
2023/03/12 07:47:01;;;;;;;1999.90;999.90;;;;;;;1.62;90.03;100371.06;5001441;28;20137;-73
2023/03/12 07:49:26;;;;;;;1999.90;999.90;;;;;;;1.71;89.31;100374.81;5002863;28;20245;-73
2023/03/12 07:51:51;;;;;;;1999.90;999.90;;;;;;;1.74;89.54;100377.50;5000109;28;20089;-73
2023/03/12 07:54:17;;;;;;;1999.90;999.90;;;;;;;1.80;88.59;100378.50;5000889;28;20034;-73
2023/03/12 07:56:42;;;;;;;1999.90;999.90;;;;;;;1.94;89.22;100375.44;5003171;28;20041;-73
2023/03/12 07:59:07;;;;;;;0.65;0.65;;;;;;;2.07;89.30;100367.91;4999624;28;20042;-73
2023/03/12 08:01:33;;;;;;;0.50;0.50;;;;;;;2.19;89.28;100376.91;4999583;28;20113;-73
2023/03/12 08:03:58;;;;;;;0.73;0.50;;;;;;;2.33;87.90;100377.28;5003342;28;20125;-73
2023/03/12 08:06:24;;;;;;;0.50;0.40;;;;;;;2.50;87.46;100382.88;4995697;28;20121;-73
2023/03/12 08:08:50;;;;;;;0.65;0.50;;;;;;;2.60;84.95;100366.63;5002485;28;20100;-73
2023/03/12 08:11:16;;;;;;;1.25;0.73;;;;;;;2.75;84.39;100373.94;5003147;28;20041;-73
2023/03/12 08:13:41;;;;;;;0.80;0.50;;;;;;;2.78;83.75;100374.00;4999835;28;20037;-73
2023/03/12 08:16:06;;;;;;;0.70;0.55;;;;;;;2.91;85.03;100375.16;5002940;28;20034;-73
2023/03/12 08:18:32;;;;;;;0.75;0.50;;;;;;;3.04;82.51;100369.38;4999935;28;20497;-73
2023/03/12 08:20:57;;;;;;;0.50;0.50;;;;;;;3.04;79.43;100369.38;4999627;28;20041;-73
2023/03/12 08:23:23;;;;;;;0.95;0.50;;;;;;;3.17;78.83;100370.50;5002608;28;20179;-73
2023/03/12 08:25:50;;;;;;;0.60;0.60;;;;;;;3.21;78.63;100366.22;5000155;28;20146;-73
2023/03/12 08:28:16;;;;;;;0.88;0.60;;;;;;;3.28;78.75;100371.59;5002116;28;20116;-73
2023/03/12 08:30:50;;;;;;;1.25;0.82;;;;;;;3.39;77.96;100364.00;4999233;28;20044;-73
2023/03/12 08:33:15;;;;;;;1.23;0.80;;;;;;;3.49;80.17;100360.72;5001863;28;20026;-73
2023/03/12 08:35:41;;;;;;;0.65;0.50;;;;;;;3.55;78.14;100365.19;5000646;28;20500;-73
2023/03/12 08:38:07;;;;;;;0.70;0.50;;;;;;;3.58;77.75;100365.22;5001763;28;20061;-73
2023/03/12 08:40:32;;;;;;;1.15;0.60;;;;;;;3.69;76.41;100362.81;5000041;28;20396;-72
2023/03/12 08:42:57;;;;;;;1.27;0.40;;;;;;;3.91;78.13;100354.56;5002178;28;20030;-73
2023/03/12 08:45:23;;;;;;;1.02;0.60;;;;;;;4.03;76.15;100358.22;5003914;28;20038;-73
2023/03/12 08:47:49;;;;;;;0.50;0.50;;;;;;;4.16;75.55;100360.19;5005742;28;20096;-73
2023/03/12 08:50:19;;;;;;;0.90;0.60;;;;;;;4.26;74.80;100362.09;5003220;28;20042;-73
2023/03/12 08:52:44;;;;;;;0.98;0.65;;;;;;;4.21;75.79;100357.66;4999642;28;20396;-73
2023/03/12 08:55:10;;;;;;;1.10;0.70;;;;;;;4.34;73.02;100360.50;5001231;28;20065;-73
2023/03/12 08:57:36;;;;;;;1.13;0.60;;;;;;;4.53;74.43;100352.94;5002712;28;20046;-73
2023/03/12 09:00:04;;;;;;;0.55;0.50;;;;;;;4.68;74.09;100347.97;5003474;28;20041;-73
2023/03/12 09:02:30;;;;;;;0.40;0.40;;;;;;;4.56;73.63;100351.28;5003390;28;20416;-73
2023/03/12 09:04:55;;;;;;;0.60;0.60;;;;;;;4.42;72.96;100351.91;5004076;28;20041;-73
2023/03/12 09:07:21;;;;;;;3.53;3.33;;;;;;;4.31;73.40;100351.75;5005394;28;20041;-72
2023/03/12 09:09:47;;;;;;;0.93;0.50;;;;;;;4.38;75.35;100343.16;5001971;28;20048;-72
2023/03/12 09:12:12;;;;;;;0.93;0.50;;;;;;;4.48;74.58;100344.16;5002217;28;20048;-73
2023/03/12 09:14:37;;;;;;;1.02;0.50;;;;;;;4.60;74.05;100346.97;5003588;28;20121;-73
2023/03/12 09:17:03;;;;;;;0.73;0.40;;;;;;;4.58;71.70;100343.44;5002913;28;20038;-73
2023/03/12 09:19:28;;;;;;;0.65;0.50;;;;;;;4.67;72.77;100343.59;5000333;28;20129;-73
2023/03/12 09:21:53;;;;;;;0.88;0.57;;;;;;;4.80;71.92;100334.19;5003687;28;20030;-73
2023/03/12 09:24:19;;;;;;;1.40;0.60;;;;;;;4.97;72.25;100332.69;5004316;28;20479;-73
2023/03/12 09:26:44;;;;;;;0.82;0.52;;;;;;;5.12;71.74;100336.38;5005349;28;20022;-73
2023/03/12 09:29:10;;;;;;;1.48;0.50;;;;;;;5.00;70.62;100332.75;5001497;28;20691;-73
2023/03/12 09:31:35;;;;;;;1.15;0.50;;;;;;;4.99;70.48;100325.75;5003859;28;20117;-73
2023/03/12 09:34:01;;;;;;;0.93;0.40;;;;;;;5.07;71.01;100331.06;5003978;28;20484;-73
2023/03/12 09:36:27;;;;;;;0.52;0.35;;;;;;;5.07;69.44;100331.06;5003935;28;20053;-73
2023/03/12 09:38:53;;;;;;;1.70;0.60;;;;;;;5.00;69.78;100332.75;5003157;28;20649;-73
2023/03/12 09:41:22;;;;;;;0.68;0.40;;;;;;;4.97;68.94;100331.81;5004107;28;20050;-73
2023/03/12 09:44:29;;;;;;;1.00;0.40;;;;;;;5.03;69.07;100326.66;5002820;28;20027;-73
2023/03/12 09:46:57;;;;;;;0.95;0.50;;;;;;;5.34;69.69;100332.25;4998832;28;20129;-73
2023/03/12 09:49:36;;;;;;;1.52;0.70;;;;;;;5.65;68.64;100329.13;5004266;28;20041;-73
2023/03/12 09:52:06;;;;;;;1.55;0.50;;;;;;;5.84;68.28;100324.06;4999615;28;20049;-73
2023/03/12 09:54:48;;;;;;;0.70;0.40;;;;;;;5.94;64.75;100325.97;5004681;28;20030;-73
2023/03/12 09:57:22;;;;;;;0.83;0.40;;;;;;;5.98;64.98;100325.13;5001987;28;20042;-73
2023/03/12 09:59:49;;;;;;;0.50;0.40;;;;;;;5.89;66.76;100320.66;5001028;28;20080;-72
2023/03/12 10:02:41;;;;;;;0.70;0.45;;;;;;;6.03;67.30;100320.81;5001697;28;20121;-73
2023/03/12 10:05:39;;;;;;;1.50;0.60;;;;;;;6.43;64.49;100310.66;5004336;28;20506;-73
2023/03/12 10:08:39;;;;;;;0.43;0.40;;;;;;;6.45;64.03;100303.69;4982626;28;20045;-73
2023/03/12 10:11:36;;;;;;;0.63;0.50;;;;;;;6.61;61.67;100311.66;4999214;28;20500;-73
2023/03/12 10:14:38;;;;;;;1.15;0.60;;;;;;;6.54;60.76;100316.84;5000026;28;20447;-73
2023/03/12 10:17:15;;;;;;;1.27;0.63;;;;;;;6.76;61.12;100310.00;5002614;28;20110;-72
2023/03/12 10:19:53;;;;;;;0.85;0.50;;;;;;;6.78;58.68;100315.22;4997623;28;20050;-73
2023/03/12 10:22:31;;;;;;;1.40;0.70;;;;;;;6.84;58.57;100317.00;5002233;28;20038;-73
2023/03/12 10:25:26;;;;;;;0.95;0.50;;;;;;;6.74;57.32;100305.59;5000998;28;20050;-73
2023/03/12 10:27:51;;;;;;;1.25;0.75;;;;;;;6.68;59.10;100305.56;5004757;28;20061;-73
2023/03/12 10:30:22;;;;;;;0.77;0.52;;;;;;;6.79;59.64;100303.88;4995975;28;20489;-73
2023/03/12 10:32:50;;;;;;;1.48;0.50;;;;;;;6.95;59.24;100305.72;5003957;28;20076;-73
2023/03/12 10:35:19;;;;;;;1.08;0.55;;;;;;;6.90;56.35;100301.31;5000779;28;20034;-73
2023/03/12 10:37:50;;;;;;;1.13;0.60;;;;;;;6.95;55.76;100295.22;5002691;28;20045;-73
2023/03/12 10:40:19;;;;;;;0.98;0.57;;;;;;;7.05;56.99;100290.00;5003116;28;20077;-73
2023/03/12 10:42:44;;;;;;;0.60;0.50;;;;;;;7.36;57.86;100291.00;5001413;28;20545;-73
2023/03/12 10:45:22;;;;;;;0.63;0.40;;;;;;;7.47;58.08;100279.66;5002188;28;20117;-73
2023/03/12 10:47:56;;;;;;;0.85;0.50;;;;;;;7.46;55.13;100282.28;4999762;28;20042;-73
2023/03/12 10:50:32;;;;;;;0.52;0.45;;;;;;;7.38;54.96;100279.63;5002687;28;20048;-73
2023/03/12 10:53:24;;;;;;;1.58;0.60;;;;;;;7.43;55.12;100275.25;5000456;28;20050;-73
2023/03/12 10:56:00;;;;;;;0.93;0.57;;;;;;;7.36;56.62;100263.03;5002375;28;20029;-73
2023/03/12 10:58:31;;;;;;;3.28;3.05;;;;;;;7.57;57.32;100263.91;4998734;28;20062;-73
2023/03/12 11:01:00;;;;;;;2.92;2.72;;;;;;;7.68;57.11;100272.72;5001677;28;20037;-74
2023/03/12 11:03:26;;;;;;;2.75;2.40;;;;;;;7.62;57.81;100276.19;5002939;28;20038;-74